createdAt,value
2023-05-14T00:01:49.528Z,68.90
2023-05-14T00:04:17.970Z,64.63
2023-05-14T00:06:46.781Z,77.07
2023-05-14T00:09:15.127Z,80.22
2023-05-14T00:11:43.303Z,90.03
2023-05-14T00:14:11.490Z,70.20
2023-05-14T00:16:39.947Z,77.60
2023-05-14T00:19:08.232Z,62.58
2023-05-14T00:21:36.429Z,64.40
2023-05-14T00:24:04.963Z,62.45
2023-05-14T00:26:33.155Z,62.25
2023-05-14T00:29:01.609Z,55.15
2023-05-14T00:31:29.865Z,60.10
2023-05-14T00:33:58.313Z,59.63
2023-05-14T00:36:26.541Z,52.58
2023-05-14T00:38:54.819Z,42.13
2023-05-14T00:41:24.206Z,55.97
2023-05-14T00:43:52.583Z,48.55
2023-05-14T00:46:21.130Z,44.30
2023-05-14T00:48:49.420Z,35.42
2023-05-14T00:51:18.859Z,44.22
2023-05-14T00:53:48.035Z,40.83
2023-05-14T00:56:17.254Z,55.15
2023-05-14T00:58:45.555Z,43.30
2023-05-14T01:01:13.921Z,51.58
2023-05-14T01:03:43.443Z,43.83
2023-05-14T01:06:20.128Z,55.03
2023-05-14T01:09:10.282Z,54.67
2023-05-14T01:11:53.645Z,50.35
2023-05-14T01:14:49.746Z,56.50
2023-05-14T01:17:18.383Z,61.83
2023-05-14T01:19:48.425Z,55.35
2023-05-14T01:22:16.797Z,42.38
2023-05-14T01:24:45.387Z,39.47
2023-05-14T01:27:24.518Z,34.13
2023-05-14T01:30:14.212Z,46.63
2023-05-14T01:32:45.353Z,42.30
2023-05-14T01:35:14.964Z,54.83
2023-05-14T01:37:44.643Z,42.47
2023-05-14T01:40:15.032Z,72.53
2023-05-14T01:42:44.477Z,59.35
2023-05-14T01:45:12.947Z,56.88
2023-05-14T01:47:41.503Z,60.78
2023-05-14T01:50:10.404Z,52.80
2023-05-14T01:52:38.848Z,46.28
2023-05-14T01:55:07.819Z,48.63
2023-05-14T01:57:36.595Z,40.92
2023-05-14T02:00:05.950Z,49.78
2023-05-14T02:02:42.209Z,40.17
2023-05-14T02:05:14.007Z,55.87
2023-05-14T02:07:43.375Z,48.60
2023-05-14T02:10:11.528Z,50.13
2023-05-14T02:12:39.930Z,51.28
2023-05-14T02:15:08.908Z,50.17
2023-05-14T02:17:37.447Z,50.30
2023-05-14T02:20:06.395Z,51.95
2023-05-14T02:22:34.484Z,46.75
2023-05-14T02:25:02.958Z,49.45
2023-05-14T02:27:31.172Z,52.22
2023-05-14T02:30:00.040Z,52.10
2023-05-14T02:32:29.048Z,46.83
2023-05-14T02:34:57.312Z,38.92
2023-05-14T02:37:25.658Z,48.65
2023-05-14T02:39:53.888Z,51.17
2023-05-14T02:42:23.909Z,52.90
2023-05-14T02:44:52.855Z,69.25
2023-05-14T02:47:21.211Z,48.67
2023-05-14T02:49:49.547Z,49.33
2023-05-14T02:52:18.087Z,60.90
2023-05-14T02:54:46.365Z,45.65
2023-05-14T02:57:14.713Z,50.13
2023-05-14T02:59:43.263Z,47.17
2023-05-14T03:02:12.013Z,39.25
2023-05-14T03:04:40.984Z,30.70
2023-05-14T03:07:09.177Z,37.20
2023-05-14T03:09:38.460Z,32.05
2023-05-14T03:12:08.223Z,42.42
2023-05-14T03:14:39.540Z,73.43
2023-05-14T03:17:07.833Z,70.50
2023-05-14T03:19:36.449Z,48.08
2023-05-14T03:22:05.054Z,39.33
2023-05-14T03:24:33.335Z,36.92
2023-05-14T03:27:01.521Z,37.25
2023-05-14T03:29:30.037Z,35.03
2023-05-14T03:31:58.738Z,39.72
2023-05-14T03:34:26.899Z,53.33
2023-05-14T03:36:55.380Z,47.47
2023-05-14T03:39:23.630Z,35.92
2023-05-14T03:41:51.926Z,37.28
2023-05-14T03:44:20.270Z,64.95
2023-05-14T03:46:48.806Z,90.97
2023-05-14T03:49:17.544Z,56.08
2023-05-14T03:51:45.729Z,44.95
2023-05-14T03:54:14.144Z,49.97
2023-05-14T03:56:42.321Z,42.10
2023-05-14T03:59:10.490Z,39.42
2023-05-14T04:01:38.756Z,32.92
2023-05-14T04:04:07.091Z,35.88
2023-05-14T04:06:36.242Z,35.15
2023-05-14T04:09:04.505Z,38.08
2023-05-14T04:11:32.754Z,46.13
2023-05-14T04:14:01.187Z,36.33
2023-05-14T04:16:29.967Z,40.00
2023-05-14T04:18:58.268Z,33.90
2023-05-14T04:21:26.500Z,37.50
2023-05-14T04:23:54.678Z,39.78
2023-05-14T04:26:22.855Z,35.03
2023-05-14T04:28:51.314Z,36.10
2023-05-14T04:31:19.583Z,39.13
2023-05-14T04:33:47.856Z,28.27
2023-05-14T04:36:15.876Z,32.38
2023-05-14T04:38:44.171Z,35.63
2023-05-14T04:41:12.396Z,33.63
2023-05-14T04:43:40.759Z,36.42
2023-05-14T04:46:09.116Z,40.30
2023-05-14T04:48:37.170Z,34.80
2023-05-14T04:51:07.130Z,34.40
2023-05-14T04:53:35.419Z,35.72
2023-05-14T04:56:03.904Z,32.10
2023-05-14T04:58:34.631Z,30.02
2023-05-14T05:01:05.534Z,38.00
2023-05-14T05:03:33.933Z,42.08
2023-05-14T05:06:02.108Z,32.38
2023-05-14T05:08:30.409Z,36.83
2023-05-14T05:10:58.567Z,41.40
2023-05-14T05:13:26.820Z,39.13
2023-05-14T05:15:55.042Z,35.20
2023-05-14T05:18:23.232Z,34.33
2023-05-14T05:20:51.434Z,38.83
2023-05-14T05:23:19.623Z,37.38
2023-05-14T05:25:48.086Z,33.00
2023-05-14T05:28:16.238Z,31.23
2023-05-14T05:30:44.692Z,28.73
2023-05-14T05:33:13.396Z,32.17
2023-05-14T05:35:41.447Z,38.53
2023-05-14T05:38:09.725Z,24.35
2023-05-14T05:40:37.991Z,34.03
2023-05-14T05:43:06.230Z,35.05
2023-05-14T05:45:34.289Z,31.30
2023-05-14T05:48:02.554Z,28.27
2023-05-14T05:50:32.763Z,38.60
2023-05-14T05:53:01.202Z,41.20
2023-05-14T05:55:30.227Z,32.72
2023-05-14T05:57:58.352Z,35.20
2023-05-14T06:00:26.907Z,30.75
2023-05-14T06:02:55.247Z,32.97
2023-05-14T06:05:23.458Z,39.60
2023-05-14T06:07:51.697Z,35.65
2023-05-14T06:10:20.176Z,30.00
2023-05-14T06:12:48.742Z,30.52
2023-05-14T06:15:16.949Z,43.00
2023-05-14T06:17:45.235Z,30.55
2023-05-14T06:20:13.757Z,36.15
2023-05-14T06:22:42.061Z,25.58
2023-05-14T06:25:10.697Z,27.65
2023-05-14T06:27:38.880Z,31.75
2023-05-14T06:30:07.819Z,30.65
2023-05-14T06:32:36.098Z,24.27
2023-05-14T06:35:04.517Z,27.95
2023-05-14T06:37:32.766Z,23.77
2023-05-14T06:40:02.376Z,26.80
2023-05-14T06:42:30.767Z,32.72
2023-05-14T06:44:59.770Z,32.03
2023-05-14T06:47:28.172Z,28.63
2023-05-14T06:49:56.407Z,31.52
2023-05-14T06:52:25.183Z,31.25
2023-05-14T06:54:53.331Z,43.05
2023-05-14T06:57:21.648Z,40.08
2023-05-14T06:59:49.883Z,31.40
2023-05-14T07:02:18.077Z,29.88
2023-05-14T07:04:46.655Z,38.40
2023-05-14T07:07:14.850Z,37.95
2023-05-14T07:09:43.223Z,29.70
2023-05-14T07:12:11.634Z,24.20
2023-05-14T07:14:39.858Z,29.45
2023-05-14T07:17:08.180Z,41.67
2023-05-14T07:19:36.618Z,32.00
2023-05-14T07:22:05.079Z,24.00
2023-05-14T07:24:33.370Z,35.95
2023-05-14T07:27:02.110Z,31.33
2023-05-14T07:29:30.387Z,25.83
2023-05-14T07:31:58.606Z,27.77
2023-05-14T07:34:27.193Z,29.15
2023-05-14T07:36:55.375Z,31.90
2023-05-14T07:39:23.638Z,29.83
2023-05-14T07:41:52.189Z,25.58
2023-05-14T07:44:20.445Z,30.52
2023-05-14T07:46:48.900Z,30.17
2023-05-14T07:49:17.172Z,27.92
2023-05-14T07:51:45.611Z,35.22
2023-05-14T07:54:13.958Z,31.98
2023-05-14T07:56:42.175Z,31.63
2023-05-14T07:59:10.413Z,33.22
2023-05-14T08:01:39.429Z,35.00
2023-05-14T08:04:08.232Z,36.50
2023-05-14T08:06:36.441Z,40.90
2023-05-14T08:09:05.026Z,30.15
2023-05-14T08:11:33.338Z,38.53
2023-05-14T08:14:01.891Z,27.73
2023-05-14T08:16:30.077Z,28.70
2023-05-14T08:18:58.436Z,37.45
2023-05-14T08:21:26.782Z,29.20
2023-05-14T08:23:55.014Z,26.40
2023-05-14T08:26:26.400Z,35.17
2023-05-14T08:28:55.041Z,32.65
2023-05-14T08:31:23.400Z,30.25
2023-05-14T08:33:51.665Z,22.73
2023-05-14T08:36:19.894Z,29.85
2023-05-14T08:38:48.413Z,34.95
2023-05-14T08:41:17.330Z,25.70
2023-05-14T08:43:49.911Z,26.98
2023-05-14T08:46:21.965Z,19.33
2023-05-14T08:51:22.571Z,69.95
2023-05-14T08:53:50.833Z,22.73
2023-05-14T08:56:19.661Z,20.25
2023-05-14T08:58:47.839Z,25.77
2023-05-14T09:01:16.034Z,34.38
2023-05-14T09:03:45.624Z,70.57
2023-05-14T09:06:16.175Z,35.05
2023-05-14T09:11:28.326Z,35.70
2023-05-14T09:13:56.571Z,47.90
2023-05-14T09:16:31.812Z,35.78
2023-05-14T09:19:00.291Z,38.70
2023-05-14T09:21:30.557Z,33.20
2023-05-14T09:24:00.963Z,32.08
2023-05-14T09:26:34.278Z,21.25
2023-05-14T09:29:03.188Z,27.50
2023-05-14T09:31:32.650Z,19.77
2023-05-14T09:44:11.773Z,18.45
2023-05-14T09:46:39.977Z,17.90
2023-05-14T09:49:08.124Z,17.75
2023-05-14T09:51:38.321Z,19.60
2023-05-14T09:54:07.331Z,19.80
2023-05-14T09:56:36.822Z,8.23
2023-05-14T09:59:05.591Z,19.30
2023-05-14T10:01:34.489Z,10.73
2023-05-14T10:04:07.039Z,18.77
2023-05-14T10:06:38.781Z,16.13
2023-05-14T10:09:13.000Z,21.23
2023-05-14T10:11:50.125Z,16.67
2023-05-14T10:14:55.611Z,8.90
2023-05-14T10:17:28.558Z,15.45
2023-05-14T10:19:59.593Z,11.02
2023-05-14T10:22:34.208Z,25.23
2023-05-14T10:25:04.489Z,19.98
2023-05-14T10:27:33.265Z,22.02
2023-05-14T10:30:06.325Z,11.75
2023-05-14T10:32:34.958Z,19.50
2023-05-14T10:35:15.590Z,21.80
2023-05-14T10:37:45.370Z,17.15
2023-05-14T10:40:14.744Z,14.27
2023-05-14T10:42:44.250Z,12.18
2023-05-14T10:45:17.456Z,18.75
2023-05-14T10:50:19.116Z,26.33
2023-05-14T10:52:47.539Z,15.07
2023-05-14T10:55:17.613Z,14.13
2023-05-14T10:57:47.242Z,16.67
2023-05-14T11:00:17.524Z,8.23
2023-05-14T11:02:47.135Z,24.48
2023-05-14T11:05:17.168Z,24.92
2023-05-14T11:07:48.013Z,14.60
2023-05-14T11:10:18.517Z,17.35
2023-05-14T11:12:48.988Z,23.92
2023-05-14T11:15:18.982Z,18.02
2023-05-14T11:17:48.467Z,17.40
2023-05-14T11:20:17.977Z,13.40
2023-05-14T11:22:48.246Z,15.82
2023-05-14T11:25:16.579Z,16.60
2023-05-14T11:27:46.929Z,18.30
2023-05-14T11:30:20.581Z,12.32
2023-05-14T11:32:50.249Z,16.45
2023-05-14T11:35:23.353Z,16.67
2023-05-14T11:37:52.868Z,18.98
2023-05-14T11:40:21.729Z,22.85
2023-05-14T11:42:52.162Z,18.52
2023-05-14T11:45:29.675Z,16.75
2023-05-14T11:47:57.914Z,14.98
2023-05-14T11:50:26.352Z,20.88
2023-05-14T11:52:58.084Z,17.13
2023-05-14T11:55:26.415Z,22.77
2023-05-14T11:57:55.067Z,18.00
2023-05-14T12:00:23.633Z,14.65
2023-05-14T12:02:52.923Z,20.27
2023-05-14T12:05:21.478Z,22.50
2023-05-14T12:07:49.773Z,21.98
2023-05-14T12:10:17.970Z,18.02
2023-05-14T12:12:50.034Z,16.23
2023-05-14T12:15:18.532Z,19.88
2023-05-14T12:17:53.200Z,18.92
2023-05-14T12:20:21.811Z,22.77
2023-05-14T12:22:50.268Z,19.77
2023-05-14T12:25:18.527Z,13.20
2023-05-14T12:27:46.825Z,14.88
2023-05-14T12:32:46.951Z,24.95
2023-05-14T12:35:15.198Z,23.13
2023-05-14T12:37:43.408Z,28.33
2023-05-14T12:40:11.919Z,25.52
2023-05-14T12:42:40.196Z,28.17
2023-05-14T12:45:09.263Z,20.42
2023-05-14T12:47:38.325Z,16.00
2023-05-14T12:50:07.077Z,18.80
2023-05-14T12:55:10.064Z,25.93
2023-05-14T13:00:09.882Z,34.05
2023-05-14T13:02:42.598Z,32.97
2023-05-14T13:05:13.187Z,34.08
2023-05-14T13:07:41.628Z,24.40
2023-05-14T13:10:10.391Z,26.77
2023-05-14T13:12:40.512Z,20.83
2023-05-14T13:15:09.293Z,28.17
2023-05-14T13:17:37.491Z,15.52
2023-05-14T13:20:06.425Z,26.92
2023-05-14T13:22:34.537Z,18.17
2023-05-14T13:25:03.490Z,38.65
2023-05-14T13:27:31.723Z,17.52
2023-05-14T13:29:59.968Z,38.35
2023-05-14T13:32:28.314Z,25.13
2023-05-14T13:34:56.727Z,21.52
2023-05-14T13:37:25.736Z,28.10
2023-05-14T13:39:53.861Z,37.38
2023-05-14T13:42:22.186Z,23.75
2023-05-14T13:44:50.633Z,21.38
2023-05-14T13:47:18.730Z,21.65
2023-05-14T13:49:47.018Z,16.80
2023-05-14T13:52:15.166Z,23.33
2023-05-14T13:54:43.758Z,30.55
2023-05-14T13:57:12.142Z,19.45
2023-05-14T13:59:40.429Z,20.08
2023-05-14T14:02:09.257Z,25.50
2023-05-14T14:04:37.735Z,17.67
2023-05-14T14:07:06.091Z,19.02
2023-05-14T14:09:34.298Z,23.98
2023-05-14T14:12:04.864Z,19.95
2023-05-14T14:14:33.204Z,23.88
2023-05-14T14:17:01.308Z,21.60
2023-05-14T14:19:29.667Z,31.27
2023-05-14T14:21:57.823Z,27.65
2023-05-14T14:24:26.290Z,29.17
2023-05-14T14:26:54.478Z,29.63
2023-05-14T14:29:22.762Z,24.10
2023-05-14T14:31:51.032Z,34.55
2023-05-14T14:34:19.525Z,24.50
2023-05-14T14:36:47.728Z,33.03
2023-05-14T14:39:15.918Z,20.55
2023-05-14T14:41:44.133Z,28.40
2023-05-14T14:44:12.722Z,30.75
2023-05-14T14:46:40.802Z,21.17
2023-05-14T14:49:09.214Z,35.13
2023-05-14T14:51:37.331Z,43.55
2023-05-14T14:54:08.498Z,35.13
2023-05-14T14:56:36.938Z,28.13
2023-05-14T14:59:05.053Z,63.55
2023-05-14T15:01:33.332Z,44.55
2023-05-14T15:04:01.591Z,33.50
2023-05-14T15:06:29.779Z,31.08
2023-05-14T15:08:57.873Z,30.02
2023-05-14T15:11:32.246Z,32.75
2023-05-14T15:14:00.485Z,25.55
2023-05-14T15:16:34.746Z,24.52
2023-05-14T15:19:03.218Z,32.80
2023-05-14T15:21:31.541Z,25.30
2023-05-14T15:23:59.929Z,34.22
2023-05-14T15:26:28.052Z,20.27
2023-05-14T15:28:56.600Z,19.42
2023-05-14T15:31:25.039Z,29.92
2023-05-14T15:33:54.429Z,24.50
2023-05-14T15:36:22.739Z,27.67
2023-05-14T15:38:51.128Z,21.08
2023-05-14T15:41:19.440Z,32.38
2023-05-14T15:43:56.708Z,28.17
2023-05-14T15:46:25.075Z,27.30
2023-05-14T15:48:53.172Z,34.75
2023-05-14T15:51:21.826Z,23.23
2023-05-14T15:53:50.369Z,25.67
2023-05-14T15:56:18.930Z,24.92
2023-05-14T15:58:47.076Z,20.17
2023-05-14T16:01:15.612Z,31.92
2023-05-14T16:03:44.028Z,25.45
2023-05-14T16:06:12.592Z,43.78
2023-05-14T16:08:40.724Z,36.47
2023-05-14T16:11:09.037Z,35.95
2023-05-14T16:13:37.261Z,34.15
2023-05-14T16:16:05.845Z,26.50
2023-05-14T16:18:34.419Z,29.48
2023-05-14T16:21:02.825Z,25.15
2023-05-14T16:23:31.176Z,33.97
2023-05-14T16:25:59.558Z,32.05
2023-05-14T16:28:27.797Z,28.02
2023-05-14T16:30:56.208Z,33.10
2023-05-14T16:33:24.508Z,34.78
2023-05-14T16:35:52.937Z,36.40
2023-05-14T16:38:21.229Z,26.50
2023-05-14T16:40:49.446Z,30.40
2023-05-14T16:43:17.882Z,36.78
2023-05-14T16:45:46.284Z,31.77
2023-05-14T16:48:14.618Z,28.83
2023-05-14T16:50:44.028Z,37.08
2023-05-14T16:53:12.243Z,33.13
2023-05-14T16:58:22.202Z,32.22
2023-05-14T17:00:50.727Z,22.88
2023-05-14T17:03:18.866Z,33.85
2023-05-14T17:05:47.404Z,36.15
2023-05-14T17:08:15.630Z,39.20
2023-05-14T17:10:43.823Z,31.65
2023-05-14T17:13:12.051Z,27.70
2023-05-14T17:15:40.742Z,30.55
2023-05-14T17:18:09.234Z,32.75
2023-05-14T17:20:38.667Z,33.13
2023-05-14T17:23:06.953Z,37.42
2023-05-14T17:25:35.262Z,33.15
2023-05-14T17:28:03.509Z,85.50
2023-05-14T17:30:32.392Z,33.25
2023-05-14T17:33:00.661Z,24.27
2023-05-14T17:35:29.411Z,51.42
2023-05-14T17:37:59.341Z,31.80
2023-05-14T17:40:28.930Z,53.17
2023-05-14T17:42:57.049Z,55.33
2023-05-14T17:45:32.174Z,41.30
2023-05-14T17:48:05.122Z,24.42
2023-05-14T17:50:33.736Z,64.05
2023-05-14T17:53:01.795Z,80.95
2023-05-14T17:55:30.266Z,38.28
2023-05-14T17:57:58.482Z,61.13
2023-05-14T18:00:26.836Z,62.08
2023-05-14T18:02:54.999Z,51.55
2023-05-14T18:05:23.623Z,103.38
2023-05-14T18:07:52.020Z,85.90
2023-05-14T18:10:20.368Z,152.95
2023-05-14T18:12:48.707Z,74.07
2023-05-14T18:15:16.918Z,77.68
2023-05-14T18:17:45.384Z,81.47
2023-05-14T18:20:13.868Z,102.00
2023-05-14T18:22:42.376Z,91.38
2023-05-14T18:25:10.718Z,153.93
2023-05-14T18:27:39.130Z,124.88
2023-05-14T18:30:08.532Z,66.70
2023-05-14T18:32:36.853Z,68.80
2023-05-14T18:35:07.903Z,202.85
2023-05-14T18:37:37.053Z,159.00
2023-05-14T18:40:05.951Z,99.72
2023-05-14T18:42:35.244Z,166.35
2023-05-14T18:45:04.719Z,174.77
2023-05-14T18:47:34.017Z,59.25
2023-05-14T18:50:02.546Z,77.38
2023-05-14T18:52:31.113Z,110.13
2023-05-14T18:54:59.596Z,90.05
2023-05-14T18:57:28.553Z,131.75
2023-05-14T18:59:57.054Z,182.60
2023-05-14T19:02:25.739Z,210.20
2023-05-14T19:04:54.088Z,103.28
2023-05-14T19:07:22.798Z,79.55
2023-05-14T19:09:50.991Z,109.60
2023-05-14T19:12:19.567Z,257.90
2023-05-14T19:14:47.893Z,250.07
2023-05-14T19:17:17.349Z,192.18
2023-05-14T19:19:46.817Z,117.00
2023-05-14T19:22:15.246Z,63.30
2023-05-14T19:24:43.770Z,96.05
2023-05-14T19:27:12.979Z,148.10
2023-05-14T19:29:41.859Z,94.32
2023-05-14T19:32:10.319Z,78.72
2023-05-14T19:34:38.574Z,56.97
2023-05-14T19:37:06.990Z,102.22
2023-05-14T19:39:35.329Z,64.05
2023-05-14T19:42:03.573Z,61.95
2023-05-14T19:44:32.008Z,72.53
2023-05-14T19:47:00.368Z,136.15
2023-05-14T19:49:28.518Z,67.40
2023-05-14T19:51:56.845Z,66.93
2023-05-14T19:54:25.177Z,48.08
2023-05-14T19:56:53.709Z,66.93
2023-05-14T19:59:22.015Z,49.58
2023-05-14T20:01:50.504Z,29.27
2023-05-14T20:04:19.076Z,30.63
2023-05-14T20:06:47.502Z,34.45
2023-05-14T20:09:15.739Z,33.30
2023-05-14T20:11:44.446Z,34.22
2023-05-14T20:14:12.719Z,40.60
2023-05-14T20:16:41.301Z,23.25
2023-05-14T20:19:09.516Z,36.05
2023-05-14T20:21:38.992Z,37.97
2023-05-14T20:24:07.450Z,54.33
2023-05-14T20:26:36.501Z,18.08
2023-05-14T20:32:05.947Z,9.90
2023-05-14T20:34:34.212Z,8.57
2023-05-14T20:37:03.276Z,8.68
2023-05-14T20:39:31.538Z,10.55
2023-05-14T20:42:00.031Z,24.27
2023-05-14T20:44:28.421Z,42.55
2023-05-14T20:46:57.307Z,28.30
2023-05-14T20:49:25.490Z,30.42
2023-05-14T20:51:53.959Z,19.38
2023-05-14T20:54:22.553Z,21.27
2023-05-14T20:56:51.020Z,17.38
2023-05-14T20:59:19.617Z,10.57
2023-05-14T21:01:48.303Z,8.60
2023-05-14T21:04:17.900Z,6.60
2023-05-14T21:06:47.079Z,8.40
2023-05-14T21:09:15.475Z,8.25
2023-05-14T21:11:43.791Z,7.95
2023-05-14T21:14:12.084Z,8.52
2023-05-14T21:16:40.358Z,8.82
2023-05-14T21:19:08.947Z,10.80
2023-05-14T21:21:43.543Z,7.60
2023-05-14T21:24:11.880Z,7.30
2023-05-14T21:26:40.468Z,11.77
2023-05-14T21:29:08.626Z,9.38
2023-05-14T21:31:36.893Z,24.40
2023-05-14T21:34:05.170Z,11.55
2023-05-14T21:36:33.633Z,37.25
2023-05-14T21:39:01.786Z,35.97
2023-05-14T21:41:31.079Z,23.20
2023-05-14T21:44:02.129Z,10.43
2023-05-14T21:46:30.762Z,22.10
2023-05-14T21:49:00.756Z,35.10
2023-05-14T21:51:28.992Z,19.05
2023-05-14T21:53:57.270Z,13.50
2023-05-14T21:56:25.561Z,12.13
2023-05-14T21:58:53.721Z,17.98
2023-05-14T22:01:22.709Z,13.25
2023-05-14T22:03:50.996Z,17.13
2023-05-14T22:06:29.307Z,18.58
2023-05-14T22:08:57.840Z,11.75
2023-05-14T22:11:26.137Z,9.32
2023-05-14T22:13:54.457Z,7.72
2023-05-14T22:16:22.999Z,9.00
2023-05-14T22:18:51.393Z,6.97
2023-05-14T22:21:19.665Z,13.20
2023-05-14T22:23:47.972Z,10.57
2023-05-14T22:26:16.590Z,7.93
2023-05-14T22:28:44.936Z,4.78
2023-05-14T22:31:13.133Z,7.70
2023-05-14T22:33:41.457Z,10.23
2023-05-14T22:36:10.305Z,6.47
2023-05-14T22:38:38.465Z,10.32
2023-05-14T22:41:06.676Z,6.47
2023-05-14T22:43:34.963Z,4.60
2023-05-14T22:46:03.114Z,7.75
2023-05-14T22:48:31.506Z,7.28
2023-05-14T22:50:59.678Z,11.38
2023-05-14T22:53:27.704Z,10.80
2023-05-14T22:55:56.006Z,7.28
2023-05-14T22:58:24.348Z,8.23
2023-05-14T23:00:52.724Z,4.78
2023-05-14T23:03:20.986Z,6.68
2023-05-14T23:05:49.201Z,6.25
2023-05-14T23:08:17.401Z,10.90
2023-05-14T23:10:45.848Z,12.95
2023-05-14T23:13:14.313Z,30.50
2023-05-14T23:15:43.215Z,12.40
2023-05-14T23:18:11.478Z,23.38
2023-05-14T23:20:39.837Z,19.08
2023-05-14T23:23:07.918Z,12.57
2023-05-14T23:25:38.512Z,9.93
2023-05-14T23:28:06.781Z,10.77
2023-05-14T23:30:34.855Z,8.77
2023-05-14T23:33:03.258Z,8.35
2023-05-14T23:35:31.675Z,10.82
2023-05-14T23:38:00.236Z,6.80
2023-05-14T23:40:28.415Z,6.50
2023-05-14T23:42:56.663Z,4.50
2023-05-14T23:45:25.026Z,5.72
2023-05-14T23:47:57.974Z,4.05
2023-05-14T23:50:26.563Z,8.20
2023-05-14T23:52:55.862Z,5.65
2023-05-14T23:55:24.326Z,6.15
2023-05-14T23:57:52.756Z,3.90
